sensor_id;sensor_type;location;lat;lon;timestamp;pressure;altitude;pressure_sealevel;temperature;humidity
69219;BME280;56232;53.384;-2.732;2023-12-20T00:01:35;101464.84;;;9.83;41.23
69219;BME280;56232;53.384;-2.732;2023-12-20T00:04:01;101466.64;;;8.70;41.25
69219;BME280;56232;53.384;-2.732;2023-12-20T00:06:26;101473.98;;;9.57;41.61
69219;BME280;56232;53.384;-2.732;2023-12-20T00:08:52;101471.83;;;9.36;41.93
69219;BME280;56232;53.384;-2.732;2023-12-20T00:11:17;101467.62;;;8.39;41.36
69219;BME280;56232;53.384;-2.732;2023-12-20T00:13:43;101464.01;;;9.36;41.44
69219;BME280;56232;53.384;-2.732;2023-12-20T00:16:09;101465.04;;;9.39;41.87
69219;BME280;56232;53.384;-2.732;2023-12-20T00:18:33;101453.82;;;8.85;42.01
69219;BME280;56232;53.384;-2.732;2023-12-20T00:20:59;101459.66;;;8.85;42.23
69219;BME280;56232;53.384;-2.732;2023-12-20T00:23:24;101459.07;;;9.41;41.70
69219;BME280;56232;53.384;-2.732;2023-12-20T00:25:49;101456.69;;;8.90;41.42
69219;BME280;56232;53.384;-2.732;2023-12-20T00:28:15;101457.76;;;9.46;41.99
69219;BME280;56232;53.384;-2.732;2023-12-20T00:30:40;101457.14;;;8.43;41.99
69219;BME280;56232;53.384;-2.732;2023-12-20T00:33:07;101461.82;;;9.13;41.87
69219;BME280;56232;53.384;-2.732;2023-12-20T00:35:32;101460.95;;;9.12;41.34
69219;BME280;56232;53.384;-2.732;2023-12-20T00:37:58;101461.26;;;9.53;41.76
69219;BME280;56232;53.384;-2.732;2023-12-20T00:40:23;101450.78;;;9.07;41.75
69219;BME280;56232;53.384;-2.732;2023-12-20T00:42:49;101451.72;;;8.42;42.15
69219;BME280;56232;53.384;-2.732;2023-12-20T00:45:15;101447.21;;;9.00;42.03
69219;BME280;56232;53.384;-2.732;2023-12-20T00:47:40;101445.42;;;8.89;41.85
69219;BME280;56232;53.384;-2.732;2023-12-20T00:50:08;101444.82;;;9.39;42.20
69219;BME280;56232;53.384;-2.732;2023-12-20T00:52:31;101448.23;;;9.21;42.41
69219;BME280;56232;53.384;-2.732;2023-12-20T00:54:57;101441.97;;;9.10;42.48
69219;BME280;56232;53.384;-2.732;2023-12-20T00:57:22;101446.75;;;9.27;42.48
69219;BME280;56232;53.384;-2.732;2023-12-20T00:59:47;101440.13;;;9.31;42.45
69219;BME280;56232;53.384;-2.732;2023-12-20T01:02:13;101444.11;;;9.07;42.33
69219;BME280;56232;53.384;-2.732;2023-12-20T01:04:38;101440.91;;;8.71;42.57
69219;BME280;56232;53.384;-2.732;2023-12-20T01:07:04;101441.96;;;9.34;42.05
69219;BME280;56232;53.384;-2.732;2023-12-20T01:09:30;101437.20;;;8.61;41.57
69219;BME280;56232;53.384;-2.732;2023-12-20T01:11:55;101445.39;;;9.20;41.64
69219;BME280;56232;53.384;-2.732;2023-12-20T01:14:21;101438.26;;;9.15;41.95
69219;BME280;56232;53.384;-2.732;2023-12-20T01:16:47;101434.90;;;9.27;41.49
69219;BME280;56232;53.384;-2.732;2023-12-20T01:19:13;101434.13;;;9.41;41.71
69219;BME280;56232;53.384;-2.732;2023-12-20T01:21:38;101432.98;;;8.84;41.67
69219;BME280;56232;53.384;-2.732;2023-12-20T01:24:03;101434.56;;;9.22;41.98
69219;BME280;56232;53.384;-2.732;2023-12-20T01:26:28;101435.24;;;9.36;41.93
69219;BME280;56232;53.384;-2.732;2023-12-20T01:28:53;101426.75;;;9.26;42.04
69219;BME280;56232;53.384;-2.732;2023-12-20T01:31:19;101425.95;;;8.75;42.08
69219;BME280;56232;53.384;-2.732;2023-12-20T01:33:44;101411.43;;;9.68;42.38
69219;BME280;56232;53.384;-2.732;2023-12-20T01:36:10;101408.60;;;9.87;41.91
69219;BME280;56232;53.384;-2.732;2023-12-20T01:38:36;101406.51;;;9.85;42.02
69219;BME280;56232;53.384;-2.732;2023-12-20T01:41:01;101401.04;;;9.88;42.05
69219;BME280;56232;53.384;-2.732;2023-12-20T01:43:27;101404.96;;;9.88;41.98
69219;BME280;56232;53.384;-2.732;2023-12-20T01:45:52;101399.00;;;9.43;41.66
69219;BME280;56232;53.384;-2.732;2023-12-20T01:48:18;101397.65;;;8.69;42.13
69219;BME280;56232;53.384;-2.732;2023-12-20T01:50:45;101394.64;;;8.96;42.40
69219;BME280;56232;53.384;-2.732;2023-12-20T01:53:11;101400.02;;;9.59;42.32
69219;BME280;56232;53.384;-2.732;2023-12-20T01:55:37;101399.46;;;8.99;42.36
69219;BME280;56232;53.384;-2.732;2023-12-20T01:58:00;101397.78;;;8.44;42.48
69219;BME280;56232;53.384;-2.732;2023-12-20T02:00:26;101393.90;;;9.15;42.19
69219;BME280;56232;53.384;-2.732;2023-12-20T02:02:53;101390.83;;;8.64;42.37
69219;BME280;56232;53.384;-2.732;2023-12-20T02:05:17;101398.31;;;9.77;42.43
69219;BME280;56232;53.384;-2.732;2023-12-20T02:07:42;101404.59;;;9.25;42.39
69219;BME280;56232;53.384;-2.732;2023-12-20T02:10:09;101399.29;;;9.80;42.21
69219;BME280;56232;53.384;-2.732;2023-12-20T02:12:33;101403.18;;;9.16;42.51
69219;BME280;56232;53.384;-2.732;2023-12-20T02:15:04;101394.92;;;9.50;42.80
69219;BME280;56232;53.384;-2.732;2023-12-20T02:17:24;101402.84;;;9.52;42.65
69219;BME280;56232;53.384;-2.732;2023-12-20T02:19:50;101407.98;;;8.49;42.23
69219;BME280;56232;53.384;-2.732;2023-12-20T02:22:15;101391.76;;;9.38;42.56
69219;BME280;56232;53.384;-2.732;2023-12-20T02:24:41;101393.50;;;9.44;42.87
69219;BME280;56232;53.384;-2.732;2023-12-20T02:27:07;101386.03;;;8.89;42.79
69219;BME280;56232;53.384;-2.732;2023-12-20T02:29:31;101380.84;;;8.84;42.97
69219;BME280;56232;53.384;-2.732;2023-12-20T02:31:57;101376.32;;;9.25;42.98
69219;BME280;56232;53.384;-2.732;2023-12-20T02:34:22;101368.24;;;9.31;42.94
69219;BME280;56232;53.384;-2.732;2023-12-20T02:36:47;101368.35;;;8.81;42.73
69219;BME280;56232;53.384;-2.732;2023-12-20T02:39:12;101370.36;;;8.56;43.17
69219;BME280;56232;53.384;-2.732;2023-12-20T02:41:37;101366.44;;;9.03;43.28
69219;BME280;56232;53.384;-2.732;2023-12-20T02:44:03;101357.67;;;8.77;43.00
69219;BME280;56232;53.384;-2.732;2023-12-20T02:46:29;101354.00;;;8.84;42.91
69219;BME280;56232;53.384;-2.732;2023-12-20T02:48:54;101368.09;;;9.42;42.98
69219;BME280;56232;53.384;-2.732;2023-12-20T02:51:20;101369.33;;;9.07;42.96
69219;BME280;56232;53.384;-2.732;2023-12-20T02:53:46;101369.73;;;9.33;42.49
69219;BME280;56232;53.384;-2.732;2023-12-20T02:56:11;101365.12;;;8.87;42.36
69219;BME280;56232;53.384;-2.732;2023-12-20T02:58:36;101370.85;;;8.86;42.63
69219;BME280;56232;53.384;-2.732;2023-12-20T03:01:03;101378.76;;;9.59;42.39
69219;BME280;56232;53.384;-2.732;2023-12-20T03:03:27;101370.08;;;9.13;42.23
69219;BME280;56232;53.384;-2.732;2023-12-20T03:05:53;101370.71;;;9.02;42.11
69219;BME280;56232;53.384;-2.732;2023-12-20T03:08:18;101373.18;;;9.60;42.39
69219;BME280;56232;53.384;-2.732;2023-12-20T03:10:44;101362.90;;;9.99;42.61
69219;BME280;56232;53.384;-2.732;2023-12-20T03:13:10;101374.46;;;9.91;42.87
69219;BME280;56232;53.384;-2.732;2023-12-20T03:15:35;101380.97;;;9.53;42.94
69219;BME280;56232;53.384;-2.732;2023-12-20T03:18:01;101377.16;;;9.60;42.58
69219;BME280;56232;53.384;-2.732;2023-12-20T03:20:26;101386.57;;;9.74;42.54
69219;BME280;56232;53.384;-2.732;2023-12-20T03:22:51;101385.45;;;9.13;42.55
69219;BME280;56232;53.384;-2.732;2023-12-20T03:25:17;101384.13;;;9.18;42.36
69219;BME280;56232;53.384;-2.732;2023-12-20T03:27:42;101386.77;;;9.14;42.25
69219;BME280;56232;53.384;-2.732;2023-12-20T03:30:09;101389.31;;;9.03;42.31
69219;BME280;56232;53.384;-2.732;2023-12-20T03:32:33;101390.72;;;9.49;42.55
69219;BME280;56232;53.384;-2.732;2023-12-20T03:34:59;101395.71;;;9.15;42.61
69219;BME280;56232;53.384;-2.732;2023-12-20T03:37:24;101386.87;;;9.15;42.45
69219;BME280;56232;53.384;-2.732;2023-12-20T03:39:50;101383.19;;;9.79;42.45
69219;BME280;56232;53.384;-2.732;2023-12-20T03:42:15;101372.45;;;9.32;42.36
69219;BME280;56232;53.384;-2.732;2023-12-20T03:44:41;101370.51;;;9.31;42.59
69219;BME280;56232;53.384;-2.732;2023-12-20T03:47:06;101372.41;;;9.30;42.43
69219;BME280;56232;53.384;-2.732;2023-12-20T03:49:31;101375.14;;;9.92;42.40
69219;BME280;56232;53.384;-2.732;2023-12-20T03:51:57;101380.39;;;9.38;42.08
69219;BME280;56232;53.384;-2.732;2023-12-20T03:54:24;101382.22;;;9.89;42.42
69219;BME280;56232;53.384;-2.732;2023-12-20T03:56:48;101375.37;;;9.89;42.40
69219;BME280;56232;53.384;-2.732;2023-12-20T03:59:14;101364.33;;;9.35;42.71
69219;BME280;56232;53.384;-2.732;2023-12-20T04:01:43;101361.03;;;9.36;42.59
69219;BME280;56232;53.384;-2.732;2023-12-20T04:04:05;101365.37;;;9.25;42.81
69219;BME280;56232;53.384;-2.732;2023-12-20T04:06:30;101363.21;;;9.27;42.89
69219;BME280;56232;53.384;-2.732;2023-12-20T04:08:56;101364.58;;;9.81;42.68
69219;BME280;56232;53.384;-2.732;2023-12-20T04:11:22;101361.96;;;9.33;42.77
69219;BME280;56232;53.384;-2.732;2023-12-20T04:13:47;101350.76;;;10.01;42.70
69219;BME280;56232;53.384;-2.732;2023-12-20T04:16:13;101350.72;;;9.57;42.42
69219;BME280;56232;53.384;-2.732;2023-12-20T04:18:38;101341.89;;;9.54;42.53
69219;BME280;56232;53.384;-2.732;2023-12-20T04:21:04;101331.39;;;9.58;42.48
69219;BME280;56232;53.384;-2.732;2023-12-20T04:23:30;101347.96;;;9.33;42.85
69219;BME280;56232;53.384;-2.732;2023-12-20T04:25:55;101345.23;;;9.69;42.91
69219;BME280;56232;53.384;-2.732;2023-12-20T04:28:21;101342.24;;;9.84;42.87
69219;BME280;56232;53.384;-2.732;2023-12-20T04:30:46;101342.57;;;9.30;43.04
69219;BME280;56232;53.384;-2.732;2023-12-20T04:33:12;101347.18;;;9.36;43.00
69219;BME280;56232;53.384;-2.732;2023-12-20T04:35:37;101346.98;;;9.95;42.82
69219;BME280;56232;53.384;-2.732;2023-12-20T04:38:02;101342.85;;;9.39;42.72
69219;BME280;56232;53.384;-2.732;2023-12-20T04:40:28;101340.40;;;9.90;42.95
69219;BME280;56232;53.384;-2.732;2023-12-20T04:42:53;101329.05;;;9.48;42.79
69219;BME280;56232;53.384;-2.732;2023-12-20T04:45:19;101339.37;;;10.49;42.78
69219;BME280;56232;53.384;-2.732;2023-12-20T04:47:44;101333.38;;;9.81;43.16
69219;BME280;56232;53.384;-2.732;2023-12-20T04:50:10;101343.73;;;9.95;42.85
69219;BME280;56232;53.384;-2.732;2023-12-20T04:52:35;101340.68;;;9.21;43.34
69219;BME280;56232;53.384;-2.732;2023-12-20T04:55:01;101331.42;;;9.35;43.18
69219;BME280;56232;53.384;-2.732;2023-12-20T04:57:26;101335.70;;;9.28;43.07
69219;BME280;56232;53.384;-2.732;2023-12-20T04:59:52;101328.23;;;9.46;42.94
69219;BME280;56232;53.384;-2.732;2023-12-20T05:02:17;101339.29;;;9.79;42.70
69219;BME280;56232;53.384;-2.732;2023-12-20T05:04:43;101339.61;;;9.88;42.52
69219;BME280;56232;53.384;-2.732;2023-12-20T05:07:09;101335.89;;;9.89;42.50
69219;BME280;56232;53.384;-2.732;2023-12-20T05:09:34;101339.95;;;9.85;42.70
69219;BME280;56232;53.384;-2.732;2023-12-20T05:11:59;101341.81;;;10.28;42.74
69219;BME280;56232;53.384;-2.732;2023-12-20T05:14:25;101351.27;;;9.72;42.82
69219;BME280;56232;53.384;-2.732;2023-12-20T05:16:50;101334.23;;;9.62;42.84
69219;BME280;56232;53.384;-2.732;2023-12-20T05:19:16;101330.98;;;9.53;42.99
69219;BME280;56232;53.384;-2.732;2023-12-20T05:21:46;101329.85;;;10.13;42.91
69219;BME280;56232;53.384;-2.732;2023-12-20T05:24:08;101343.81;;;9.69;42.93
69219;BME280;56232;53.384;-2.732;2023-12-20T05:26:33;101340.48;;;9.69;42.76
69219;BME280;56232;53.384;-2.732;2023-12-20T05:28:58;101333.55;;;10.00;42.52
69219;BME280;56232;53.384;-2.732;2023-12-20T05:31:23;101335.49;;;10.11;42.45
69219;BME280;56232;53.384;-2.732;2023-12-20T05:33:49;101342.35;;;10.15;42.29
69219;BME280;56232;53.384;-2.732;2023-12-20T05:36:14;101347.12;;;10.28;42.21
69219;BME280;56232;53.384;-2.732;2023-12-20T05:38:40;101340.71;;;9.67;42.29
69219;BME280;56232;53.384;-2.732;2023-12-20T05:41:05;101345.87;;;9.56;42.51
69219;BME280;56232;53.384;-2.732;2023-12-20T05:43:31;101352.52;;;10.14;42.53
69219;BME280;56232;53.384;-2.732;2023-12-20T05:45:56;101333.94;;;10.18;42.38
69219;BME280;56232;53.384;-2.732;2023-12-20T05:48:22;101335.60;;;10.14;42.28
69219;BME280;56232;53.384;-2.732;2023-12-20T05:50:47;101327.83;;;10.11;42.63
69219;BME280;56232;53.384;-2.732;2023-12-20T05:53:12;101329.11;;;9.98;42.24
69219;BME280;56232;53.384;-2.732;2023-12-20T05:55:38;101316.92;;;10.06;42.56
69219;BME280;56232;53.384;-2.732;2023-12-20T05:58:03;101317.06;;;10.11;42.44
69219;BME280;56232;53.384;-2.732;2023-12-20T06:00:29;101311.30;;;9.97;42.56
69219;BME280;56232;53.384;-2.732;2023-12-20T06:02:54;101310.20;;;9.02;42.49
69219;BME280;56232;53.384;-2.732;2023-12-20T06:05:19;101305.57;;;9.15;42.30
69219;BME280;56232;53.384;-2.732;2023-12-20T06:07:45;101302.48;;;10.03;42.15
69219;BME280;56232;53.384;-2.732;2023-12-20T06:10:10;101313.69;;;9.55;42.59
69219;BME280;56232;53.384;-2.732;2023-12-20T06:12:36;101314.39;;;9.38;42.71
69219;BME280;56232;53.384;-2.732;2023-12-20T06:15:02;101317.19;;;9.34;43.04
69219;BME280;56232;53.384;-2.732;2023-12-20T06:17:27;101305.36;;;9.44;43.14
69219;BME280;56232;53.384;-2.732;2023-12-20T06:19:53;101303.27;;;9.52;42.84
69219;BME280;56232;53.384;-2.732;2023-12-20T06:22:18;101304.57;;;9.45;42.84
69219;BME280;56232;53.384;-2.732;2023-12-20T06:24:43;101321.56;;;9.71;42.89
69219;BME280;56232;53.384;-2.732;2023-12-20T06:27:10;101325.77;;;9.50;43.26
69219;BME280;56232;53.384;-2.732;2023-12-20T06:29:35;101331.21;;;9.54;43.10
69219;BME280;56232;53.384;-2.732;2023-12-20T06:32:00;101325.87;;;9.05;43.04
69219;BME280;56232;53.384;-2.732;2023-12-20T06:34:26;101331.17;;;9.15;43.19
69219;BME280;56232;53.384;-2.732;2023-12-20T06:36:51;101332.04;;;9.53;42.81
69219;BME280;56232;53.384;-2.732;2023-12-20T06:39:16;101343.65;;;9.78;42.48
69219;BME280;56232;53.384;-2.732;2023-12-20T06:41:42;101327.79;;;9.81;42.64
69219;BME280;56232;53.384;-2.732;2023-12-20T06:44:09;101324.77;;;9.76;42.62
69219;BME280;56232;53.384;-2.732;2023-12-20T06:46:33;101327.19;;;9.90;42.43
69219;BME280;56232;53.384;-2.732;2023-12-20T06:48:58;101314.26;;;9.66;42.83
69219;BME280;56232;53.384;-2.732;2023-12-20T06:51:24;101313.48;;;9.70;42.92
69219;BME280;56232;53.384;-2.732;2023-12-20T06:53:49;101310.98;;;9.36;43.21
69219;BME280;56232;53.384;-2.732;2023-12-20T06:56:15;101314.27;;;9.15;43.25
69219;BME280;56232;53.384;-2.732;2023-12-20T06:58:41;101335.63;;;8.90;43.60
69219;BME280;56232;53.384;-2.732;2023-12-20T07:01:11;101338.05;;;8.88;43.64
69219;BME280;56232;53.384;-2.732;2023-12-20T07:03:31;101334.98;;;9.45;43.84
69219;BME280;56232;53.384;-2.732;2023-12-20T07:05:57;101339.99;;;9.16;43.52
69219;BME280;56232;53.384;-2.732;2023-12-20T07:08:23;101342.05;;;9.21;43.40
69219;BME280;56232;53.384;-2.732;2023-12-20T07:10:48;101339.51;;;9.77;43.19
69219;BME280;56232;53.384;-2.732;2023-12-20T07:13:14;101346.35;;;9.78;43.35
69219;BME280;56232;53.384;-2.732;2023-12-20T07:15:40;101343.20;;;9.40;43.35
69219;BME280;56232;53.384;-2.732;2023-12-20T07:18:05;101336.73;;;9.55;42.92
69219;BME280;56232;53.384;-2.732;2023-12-20T07:20:31;101335.69;;;9.75;42.73
69219;BME280;56232;53.384;-2.732;2023-12-20T07:22:56;101339.71;;;9.74;42.60
69219;BME280;56232;53.384;-2.732;2023-12-20T07:25:22;101330.46;;;9.78;42.59
69219;BME280;56232;53.384;-2.732;2023-12-20T07:27:47;101321.36;;;10.00;42.46
69219;BME280;56232;53.384;-2.732;2023-12-20T07:30:13;101318.14;;;9.37;42.37
69219;BME280;56232;53.384;-2.732;2023-12-20T07:32:38;101320.27;;;9.75;42.57
69219;BME280;56232;53.384;-2.732;2023-12-20T07:35:05;101315.68;;;9.53;42.76
69219;BME280;56232;53.384;-2.732;2023-12-20T07:37:29;101313.57;;;9.20;42.93
69219;BME280;56232;53.384;-2.732;2023-12-20T07:39:55;101296.64;;;10.21;42.86
69219;BME280;56232;53.384;-2.732;2023-12-20T07:42:20;101295.79;;;9.10;43.20
69219;BME280;56232;53.384;-2.732;2023-12-20T07:44:46;101289.09;;;10.05;43.26
69219;BME280;56232;53.384;-2.732;2023-12-20T07:47:12;101297.81;;;8.70;43.53
69219;BME280;56232;53.384;-2.732;2023-12-20T07:49:37;101305.98;;;9.63;43.78
69219;BME280;56232;53.384;-2.732;2023-12-20T07:52:03;101305.89;;;9.00;43.93
69219;BME280;56232;53.384;-2.732;2023-12-20T07:54:28;101317.12;;;9.52;44.02
69219;BME280;56232;53.384;-2.732;2023-12-20T07:56:55;101314.91;;;8.80;43.89
69219;BME280;56232;53.384;-2.732;2023-12-20T07:59:19;101325.62;;;8.91;43.74
69219;BME280;56232;53.384;-2.732;2023-12-20T08:01:45;101314.96;;;9.28;43.87
69219;BME280;56232;53.384;-2.732;2023-12-20T08:04:11;101319.87;;;8.85;43.92
69219;BME280;56232;53.384;-2.732;2023-12-20T08:06:36;101311.43;;;9.27;43.96
69219;BME280;56232;53.384;-2.732;2023-12-20T08:09:01;101313.09;;;8.75;43.97
69219;BME280;56232;53.384;-2.732;2023-12-20T08:11:32;101323.95;;;8.67;43.97
69219;BME280;56232;53.384;-2.732;2023-12-20T08:13:53;101312.83;;;8.67;44.12
69219;BME280;56232;53.384;-2.732;2023-12-20T08:16:18;101315.11;;;9.58;44.25
69219;BME280;56232;53.384;-2.732;2023-12-20T08:18:43;101319.40;;;8.72;44.20
69219;BME280;56232;53.384;-2.732;2023-12-20T08:21:10;101314.14;;;9.45;43.95
69219;BME280;56232;53.384;-2.732;2023-12-20T08:23:35;101312.16;;;9.27;43.57
69219;BME280;56232;53.384;-2.732;2023-12-20T08:26:04;101310.69;;;9.41;43.49
69219;BME280;56232;53.384;-2.732;2023-12-20T08:28:26;101303.36;;;9.92;43.31
69219;BME280;56232;53.384;-2.732;2023-12-20T08:30:52;101311.04;;;9.29;43.53
69219;BME280;56232;53.384;-2.732;2023-12-20T08:33:17;101310.34;;;9.26;43.69
69219;BME280;56232;53.384;-2.732;2023-12-20T08:35:42;101320.61;;;9.36;43.53
69219;BME280;56232;53.384;-2.732;2023-12-20T08:38:08;101314.17;;;9.41;43.47
69219;BME280;56232;53.384;-2.732;2023-12-20T08:40:33;101320.03;;;9.55;43.34
69219;BME280;56232;53.384;-2.732;2023-12-20T08:42:59;101320.60;;;9.50;43.42
69219;BME280;56232;53.384;-2.732;2023-12-20T08:45:25;101317.04;;;9.55;43.56
69219;BME280;56232;53.384;-2.732;2023-12-20T08:47:50;101315.55;;;9.81;43.21
69219;BME280;56232;53.384;-2.732;2023-12-20T08:50:16;101313.41;;;9.31;43.27
69219;BME280;56232;53.384;-2.732;2023-12-20T08:52:41;101316.61;;;10.04;43.14
69219;BME280;56232;53.384;-2.732;2023-12-20T08:55:08;101309.93;;;10.16;43.04
69219;BME280;56232;53.384;-2.732;2023-12-20T08:57:32;101303.29;;;10.22;42.83
69219;BME280;56232;53.384;-2.732;2023-12-20T08:59:58;101305.73;;;9.63;42.75
69219;BME280;56232;53.384;-2.732;2023-12-20T09:02:24;101307.91;;;10.11;42.96
69219;BME280;56232;53.384;-2.732;2023-12-20T09:04:49;101307.26;;;10.00;43.17
69219;BME280;56232;53.384;-2.732;2023-12-20T09:07:21;101311.90;;;10.12;42.96
69219;BME280;56232;53.384;-2.732;2023-12-20T09:09:41;101310.89;;;9.55;43.08
69219;BME280;56232;53.384;-2.732;2023-12-20T09:12:07;101308.68;;;10.18;43.06
69219;BME280;56232;53.384;-2.732;2023-12-20T09:14:32;101311.41;;;10.08;43.18
69219;BME280;56232;53.384;-2.732;2023-12-20T09:16:58;101301.23;;;9.99;43.43
69219;BME280;56232;53.384;-2.732;2023-12-20T09:19:23;101292.55;;;10.20;43.19
69219;BME280;56232;53.384;-2.732;2023-12-20T09:21:49;101292.02;;;9.88;43.61
69219;BME280;56232;53.384;-2.732;2023-12-20T09:24:15;101277.17;;;10.00;43.58
69219;BME280;56232;53.384;-2.732;2023-12-20T09:26:40;101276.50;;;9.90;43.79
69219;BME280;56232;53.384;-2.732;2023-12-20T09:29:06;101280.75;;;10.11;43.55
69219;BME280;56232;53.384;-2.732;2023-12-20T09:31:32;101277.70;;;10.13;43.55
69219;BME280;56232;53.384;-2.732;2023-12-20T09:33:57;101274.89;;;10.13;43.49
69219;BME280;56232;53.384;-2.732;2023-12-20T09:36:23;101273.90;;;10.29;43.42
69219;BME280;56232;53.384;-2.732;2023-12-20T09:38:49;101286.91;;;10.29;43.41
69219;BME280;56232;53.384;-2.732;2023-12-20T09:41:15;101277.27;;;9.17;43.46
69219;BME280;56232;53.384;-2.732;2023-12-20T09:43:41;101282.27;;;10.33;43.31
69219;BME280;56232;53.384;-2.732;2023-12-20T09:46:06;101279.11;;;10.13;43.57
69219;BME280;56232;53.384;-2.732;2023-12-20T09:48:33;101276.38;;;10.01;43.70
69219;BME280;56232;53.384;-2.732;2023-12-20T09:50:57;101278.81;;;10.08;43.77
69219;BME280;56232;53.384;-2.732;2023-12-20T09:53:22;101294.60;;;10.13;43.78
69219;BME280;56232;53.384;-2.732;2023-12-20T09:55:48;101282.51;;;10.09;43.71
69219;BME280;56232;53.384;-2.732;2023-12-20T09:58:14;101282.14;;;10.03;43.79
69219;BME280;56232;53.384;-2.732;2023-12-20T10:00:39;101284.99;;;10.02;44.00
69219;BME280;56232;53.384;-2.732;2023-12-20T10:03:06;101286.94;;;10.06;43.89
69219;BME280;56232;53.384;-2.732;2023-12-20T10:05:32;101280.99;;;9.87;44.34
69219;BME280;56232;53.384;-2.732;2023-12-20T10:07:57;101277.19;;;10.08;44.15
69219;BME280;56232;53.384;-2.732;2023-12-20T10:10:22;101277.02;;;10.14;44.12
69219;BME280;56232;53.384;-2.732;2023-12-20T10:15:13;101257.20;;;10.45;43.84
69219;BME280;56232;53.384;-2.732;2023-12-20T10:17:39;101254.10;;;9.87;43.74
69219;BME280;56232;53.384;-2.732;2023-12-20T10:20:06;101251.15;;;10.07;43.70
69219;BME280;56232;53.384;-2.732;2023-12-20T10:22:32;101239.69;;;10.24;43.56
69219;BME280;56232;53.384;-2.732;2023-12-20T10:24:56;101241.11;;;10.95;43.37
69219;BME280;56232;53.384;-2.732;2023-12-20T10:27:21;101239.58;;;10.94;43.38
69219;BME280;56232;53.384;-2.732;2023-12-20T10:29:46;101244.87;;;10.54;43.20
69219;BME280;56232;53.384;-2.732;2023-12-20T10:32:21;101253.69;;;11.19;43.11
69219;BME280;56232;53.384;-2.732;2023-12-20T10:34:37;101240.46;;;10.12;42.99
69219;BME280;56232;53.384;-2.732;2023-12-20T10:37:03;101241.70;;;10.22;43.06
69219;BME280;56232;53.384;-2.732;2023-12-20T10:39:29;101235.50;;;10.34;43.05
69219;BME280;56232;53.384;-2.732;2023-12-20T10:41:54;101210.35;;;9.89;42.98
69219;BME280;56232;53.384;-2.732;2023-12-20T10:44:19;101211.41;;;10.86;42.43
69219;BME280;56232;53.384;-2.732;2023-12-20T10:46:45;101220.08;;;10.92;42.22
69219;BME280;56232;53.384;-2.732;2023-12-20T10:49:11;101207.31;;;10.93;42.57
69219;BME280;56232;53.384;-2.732;2023-12-20T10:51:37;101203.62;;;11.26;42.25
69219;BME280;56232;53.384;-2.732;2023-12-20T10:54:01;101197.46;;;11.78;42.02
69219;BME280;56232;53.384;-2.732;2023-12-20T10:56:32;101192.50;;;11.29;42.26
69219;BME280;56232;53.384;-2.732;2023-12-20T10:58:52;101170.99;;;11.18;42.31
69219;BME280;56232;53.384;-2.732;2023-12-20T11:01:19;101177.56;;;10.91;42.74
69219;BME280;56232;53.384;-2.732;2023-12-20T11:03:48;101176.34;;;10.89;42.91
69219;BME280;56232;53.384;-2.732;2023-12-20T11:06:18;101168.18;;;11.92;42.94
69219;BME280;56232;53.384;-2.732;2023-12-20T11:08:39;101173.12;;;11.28;43.08
69219;BME280;56232;53.384;-2.732;2023-12-20T11:11:04;101166.22;;;10.52;43.39
69219;BME280;56232;53.384;-2.732;2023-12-20T11:13:30;101162.18;;;9.73;43.73
69219;BME280;56232;53.384;-2.732;2023-12-20T11:15:50;101158.10;;;11.37;43.66
69219;BME280;56232;53.384;-2.732;2023-12-20T11:18:16;101154.46;;;9.43;43.99
69219;BME280;56232;53.384;-2.732;2023-12-20T11:20:42;101141.43;;;10.37;43.91
69219;BME280;56232;53.384;-2.732;2023-12-20T11:23:08;101152.91;;;9.97;43.60
69219;BME280;56232;53.384;-2.732;2023-12-20T11:28:07;101140.66;;;11.42;43.83
69219;BME280;56232;53.384;-2.732;2023-12-20T11:30:24;101131.29;;;11.31;44.19
69219;BME280;56232;53.384;-2.732;2023-12-20T11:32:49;101127.24;;;10.52;43.80
69219;BME280;56232;53.384;-2.732;2023-12-20T11:35:19;101126.44;;;10.69;43.47
69219;BME280;56232;53.384;-2.732;2023-12-20T11:37:41;101112.23;;;10.87;43.44
69219;BME280;56232;53.384;-2.732;2023-12-20T11:40:11;101119.12;;;11.04;43.28
69219;BME280;56232;53.384;-2.732;2023-12-20T11:42:33;101098.28;;;10.64;42.93
69219;BME280;56232;53.384;-2.732;2023-12-20T11:44:57;101100.57;;;10.99;43.20
69219;BME280;56232;53.384;-2.732;2023-12-20T11:47:23;101107.12;;;11.09;43.25
69219;BME280;56232;53.384;-2.732;2023-12-20T11:49:49;101115.30;;;11.13;43.24
69219;BME280;56232;53.384;-2.732;2023-12-20T11:52:14;101105.48;;;11.19;43.02
69219;BME280;56232;53.384;-2.732;2023-12-20T11:54:40;101112.66;;;11.14;43.25
69219;BME280;56232;53.384;-2.732;2023-12-20T11:57:06;101110.68;;;11.21;43.11
69219;BME280;56232;53.384;-2.732;2023-12-20T11:59:31;101099.01;;;10.99;43.30
69219;BME280;56232;53.384;-2.732;2023-12-20T12:01:56;101090.58;;;10.84;43.44
69219;BME280;56232;53.384;-2.732;2023-12-20T12:04:22;101085.89;;;10.63;43.67
69219;BME280;56232;53.384;-2.732;2023-12-20T12:06:47;101080.79;;;10.67;43.87
69219;BME280;56232;53.384;-2.732;2023-12-20T12:09:13;101086.02;;;11.19;43.87
69219;BME280;56232;53.384;-2.732;2023-12-20T12:11:38;101084.65;;;11.19;43.69
69219;BME280;56232;53.384;-2.732;2023-12-20T12:14:04;101082.99;;;10.84;43.65
69219;BME280;56232;53.384;-2.732;2023-12-20T12:16:29;101076.17;;;11.05;43.33
69219;BME280;56232;53.384;-2.732;2023-12-20T12:18:56;101070.82;;;11.09;43.47
69219;BME280;56232;53.384;-2.732;2023-12-20T12:21:20;101058.56;;;11.12;43.36
69219;BME280;56232;53.384;-2.732;2023-12-20T12:23:46;101076.35;;;10.94;43.61
69219;BME280;56232;53.384;-2.732;2023-12-20T12:26:12;101055.79;;;11.04;43.52
69219;BME280;56232;53.384;-2.732;2023-12-20T12:28:40;101041.63;;;11.42;43.61
69219;BME280;56232;53.384;-2.732;2023-12-20T12:31:08;101038.13;;;10.97;43.64
69219;BME280;56232;53.384;-2.732;2023-12-20T12:33:28;101016.39;;;10.78;43.88
69219;BME280;56232;53.384;-2.732;2023-12-20T12:35:54;101009.43;;;10.70;43.94
69219;BME280;56232;53.384;-2.732;2023-12-20T12:38:20;100997.19;;;10.92;43.79
69219;BME280;56232;53.384;-2.732;2023-12-20T12:40:45;100995.54;;;11.12;43.41
69219;BME280;56232;53.384;-2.732;2023-12-20T12:43:11;100994.18;;;11.07;43.28